Time;durP1;ratioP1;P1;durP2;ratioP2;P2;SDS_P1;SDS_P2;PMS_P1;PMS_P2;Temp;Humidity;BMP_temperature;BMP_pressure;BME280_temperature;BME280_humidity;BME280_pressure;Samples;Min_cycle;Max_cycle;Signal;HPM_P1;HPM_P2
2022/04/17 00:01:02;;;;;;;;;3.00;3.00;;;;;16.53;35.21;102166.91;4979942;28;45496;-79
2022/04/17 00:03:29;;;;;;;;;4.00;4.00;;;;;16.46;35.58;102159.84;4999041;28;45461;-80
2022/04/17 00:05:54;;;;;;;;;3.33;3.00;;;;;16.40;35.51;102159.00;5020607;28;45502;-70
2022/04/17 00:08:20;;;;;;;;;2.33;2.33;;;;;16.27;35.46;102150.16;5019849;28;45247;-74
2022/04/17 00:10:47;;;;;;;;;3.00;3.00;;;;;16.20;35.49;102136.03;5019729;28;45460;-70
2022/04/17 00:13:16;;;;;;;;;2.33;2.00;;;;;16.15;35.98;102139.56;5018957;28;45531;-69
2022/04/17 00:15:42;;;;;;;;;3.67;3.67;;;;;16.19;35.85;102141.34;5019901;28;45377;-72
2022/04/17 00:18:08;;;;;;;;;3.00;3.00;;;;;16.08;35.61;102128.97;5019364;28;45516;-72
2022/04/17 00:20:34;;;;;;;;;3.33;3.00;;;;;15.87;35.93;102098.16;5019313;28;45596;-73
2022/04/17 00:23:00;;;;;;;;;5.33;3.67;;;;;16.06;35.74;102138.69;5019416;28;45995;-71
2022/04/17 00:25:25;;;;;;;;;4.00;4.00;;;;;16.04;36.05;102156.31;5017363;28;45784;-73
2022/04/17 00:27:51;;;;;;;;;4.00;3.00;;;;;15.93;35.83;102121.03;5019021;28;46475;-73
2022/04/17 00:30:16;;;;;;;;;4.00;2.00;;;;;16.05;35.85;102149.25;5012404;28;45307;-71
2022/04/17 00:32:43;;;;;;;;;4.33;3.00;;;;;15.98;36.10;102135.13;5019648;28;45308;-69
2022/04/17 00:35:09;;;;;;;;;4.00;4.00;;;;;15.99;36.14;102128.09;5019561;28;45436;-70
2022/04/17 00:37:36;;;;;;;;;5.00;5.00;;;;;16.01;35.88;102143.06;5017608;28;46927;-70
2022/04/17 00:40:06;;;;;;;;;3.00;3.00;;;;;15.93;35.67;102126.31;5033942;28;45483;-71
2022/04/17 00:42:32;;;;;;;;;3.00;3.00;;;;;16.05;35.37;102143.97;5034662;28;45542;-72
2022/04/17 00:44:57;;;;;;;;;3.00;3.00;;;;;15.97;35.83;102138.69;5021285;28;45361;-71
2022/04/17 00:47:23;;;;;;;;;4.33;3.00;;;;;15.81;36.08;102124.53;5022405;28;45381;-72
2022/04/17 00:49:49;;;;;;;;;5.33;4.00;;;;;15.81;36.07;102124.53;5023896;28;45473;-76
2022/04/17 00:52:15;;;;;;;;;4.33;4.33;;;;;15.83;36.13;102125.44;5023866;28;45490;-76
2022/04/17 00:54:45;;;;;;;;;3.00;3.00;;;;;15.89;35.68;102138.63;5021838;28;45555;-75
2022/04/17 00:57:13;;;;;;;;;2.00;2.00;;;;;15.69;35.33;102106.00;5022495;28;45531;-73
2022/04/17 00:59:42;;;;;;;;;2.67;2.67;;;;;15.73;35.96;102123.66;5022071;28;45347;-77
2022/04/17 01:02:09;;;;;;;;;5.67;3.00;;;;;15.73;35.80;102128.03;5023082;28;45504;-73
2022/04/17 01:04:36;;;;;;;;;4.00;4.00;;;;;15.56;35.54;102098.91;5022258;28;45454;-74
2022/04/17 01:07:05;;;;;;;;;3.00;2.00;;;;;15.61;35.90;102118.28;5021434;28;46457;-77
2022/04/17 01:09:32;;;;;;;;;6.67;2.33;;;;;15.60;36.27;102122.69;5023035;28;45393;-73
2022/04/17 01:11:59;;;;;;;;;4.33;3.67;;;;;15.58;36.25;102121.78;5021627;28;45345;-71
2022/04/17 01:14:26;;;;;;;;;3.00;3.00;;;;;15.58;35.77;102124.44;5021080;28;45326;-78
2022/04/17 01:16:52;;;;;;;;;3.00;3.00;;;;;15.52;35.93;102102.41;5021005;28;46593;-75
2022/04/17 01:19:18;;;;;;;;;5.67;4.00;;;;;15.41;35.44;102102.38;5021566;28;45287;-74
2022/04/17 01:21:46;;;;;;;;;3.00;3.00;;;;;15.43;35.43;102111.19;5022655;28;45310;-75
2022/04/17 01:27:02;;;;;;;;;4.00;3.33;;;;;15.36;35.31;102105.00;5021471;28;45312;-75
2022/04/17 01:29:37;;;;;;;;;4.33;4.33;;;;;15.31;35.69;102098.81;5020776;28;45991;-76
2022/04/17 01:32:08;;;;;;;;;3.33;3.33;;;;;15.35;35.31;102110.25;5025452;28;45334;-76
2022/04/17 01:34:34;;;;;;;;;2.33;2.33;;;;;14.81;35.07;102012.41;5020758;28;45348;-76
2022/04/17 01:37:02;;;;;;;;;3.00;3.00;;;;;15.26;35.19;102092.66;5016973;28;47640;-70
2022/04/17 01:39:29;;;;;;;;;3.00;3.00;;;;;15.27;35.52;102104.94;5019701;28;45373;-75
2022/04/17 01:41:55;;;;;;;;;3.67;3.67;;;;;15.25;35.41;102099.66;5019265;28;45566;-76
2022/04/17 01:44:28;;;;;;;;;4.00;3.00;;;;;15.13;35.27;102091.69;5019982;28;46170;-76
2022/04/17 01:46:55;;;;;;;;;5.00;5.00;;;;;14.96;35.30;102059.94;5018429;28;45791;-79
2022/04/17 01:49:21;;;;;;;;;9.00;5.50;;;;;14.80;35.49;102045.78;5018270;28;45296;-77
2022/04/17 01:51:48;;;;;;;;;7.00;5.67;;;;;15.06;35.88;102095.16;5018127;28;45513;-76
2022/04/17 01:54:15;;;;;;;;;7.75;5.25;;;;;15.00;35.46;102101.31;5017605;28;45308;-76
2022/04/17 01:56:42;;;;;;;;;5.75;5.00;;;;;14.91;35.64;102074.88;5017587;28;46212;-77
2022/04/17 01:59:09;;;;;;;;;7.67;4.67;;;;;15.00;35.41;102095.16;5011543;28;45409;-74
2022/04/17 02:01:35;;;;;;;;;9.00;6.25;;;;;14.99;35.28;102107.44;5007878;28;45616;-76
2022/04/17 02:04:03;;;;;;;;;5.00;4.75;;;;;14.94;35.42;102095.13;4998607;28;45843;-70
2022/04/17 02:06:29;;;;;;;;;4.50;4.50;;;;;14.77;35.58;102072.16;4998103;28;45354;-77
2022/04/17 02:08:55;;;;;;;;;7.50;6.25;;;;;14.83;35.11;102093.31;5003572;28;45409;-77
2022/04/17 02:11:26;;;;;;;;;4.50;4.25;;;;;14.73;35.55;102077.41;5017899;28;45503;-77
2022/04/17 02:13:52;;;;;;;;;6.50;4.25;;;;;14.75;34.95;102094.13;5033731;28;45890;-75
2022/04/17 02:16:20;;;;;;;;;4.00;4.00;;;;;14.64;35.02;102083.50;5019533;28;45504;-77
2022/04/17 02:18:49;;;;;;;;;4.25;3.50;;;;;14.65;34.99;102080.00;5017052;28;45535;-74
2022/04/17 02:21:17;;;;;;;;;4.00;4.00;;;;;14.66;35.36;102084.38;5022280;28;45362;-78
2022/04/17 02:23:44;;;;;;;;;4.50;3.00;;;;;14.60;35.56;102068.53;5023440;28;45500;-77
2022/04/17 02:26:11;;;;;;;;;4.00;4.00;;;;;14.63;35.45;102087.00;5017597;28;46088;-76
2022/04/17 02:28:38;;;;;;;;;3.00;3.00;;;;;14.62;34.83;102086.13;5018919;28;45439;-71
2022/04/17 02:31:08;;;;;;;;;3.00;3.00;;;;;14.58;35.24;102083.47;5017785;28;45380;-69
2022/04/17 02:33:34;;;;;;;;;3.25;2.75;;;;;14.57;35.48;102076.44;5017359;28;45475;-75
2022/04/17 02:36:01;;;;;;;;;3.25;3.25;;;;;14.51;35.21;102071.06;5017818;28;45445;-76
2022/04/17 02:38:27;;;;;;;;;2.75;2.75;;;;;14.60;35.09;102071.19;5017652;28;45492;-75
2022/04/17 02:40:54;;;;;;;;;4.50;3.00;;;;;14.45;35.17;102050.84;5017946;28;45380;-72
2022/04/17 02:43:20;;;;;;;;;4.75;3.00;;;;;14.52;35.46;102072.81;5017314;28;45475;-73
2022/04/17 02:45:46;;;;;;;;;3.00;3.00;;;;;14.34;35.06;102040.19;5016283;28;46096;-72
2022/04/17 02:48:12;;;;;;;;;3.50;3.50;;;;;14.47;35.08;102066.63;5016945;28;45243;-76
2022/04/17 02:50:39;;;;;;;;;2.33;2.33;;;;;14.26;35.54;102038.38;5017424;28;45496;-75
2022/04/17 02:53:05;;;;;;;;;5.00;3.00;;;;;14.31;35.58;102048.09;5014607;28;45476;-71
2022/04/17 02:55:30;;;;;;;;;5.00;3.00;;;;;14.38;35.23;102065.72;5017616;28;45249;-72
2022/04/17 02:57:56;;;;;;;;;3.00;3.00;;;;;14.33;35.76;102064.81;5017050;28;45472;-69
2022/04/17 03:00:23;;;;;;;;;3.00;3.00;;;;;14.12;35.41;102035.66;5015509;28;45378;-74
2022/04/17 03:05:41;;;;;;;;;3.00;3.00;;;;;14.26;35.72;102057.72;5016267;28;46055;-71
2022/04/17 03:08:08;;;;;;;;;5.00;3.75;;;;;14.18;35.80;102048.84;5016649;28;45451;-72
2022/04/17 03:10:37;;;;;;;;;5.00;5.00;;;;;14.04;35.75;102037.31;5017198;28;45468;-75
2022/04/17 03:13:07;;;;;;;;;3.75;3.25;;;;;14.06;35.97;102048.75;5017420;28;45418;-75
2022/04/17 03:15:37;;;;;;;;;3.50;2.00;;;;;13.95;35.71;102032.84;5016392;28;46516;-72
2022/04/17 03:18:04;;;;;;;;;4.00;2.33;;;;;13.98;36.15;102044.31;5004009;28;45382;-73
2022/04/17 03:20:31;;;;;;;;;4.00;4.00;;;;;13.83;36.51;102038.00;5017322;28;45339;-75
2022/04/17 03:22:57;;;;;;;;;3.75;3.50;;;;;13.79;36.19;102038.00;5016936;28;45579;-74
2022/04/17 03:25:23;;;;;;;;;2.00;2.00;;;;;13.84;36.23;102045.06;5029369;28;45573;-73
2022/04/17 03:27:48;;;;;;;;;4.00;3.00;;;;;13.86;36.29;102041.56;5016381;28;45633;-74
2022/04/17 03:30:15;;;;;;;;;4.25;4.25;;;;;13.85;36.73;102044.19;5016202;28;45492;-73
2022/04/17 03:32:57;;;;;;;;;3.00;3.00;;;;;13.81;36.20;102030.13;5007225;28;45983;-73
2022/04/17 03:35:23;;;;;;;;;4.50;3.00;;;;;13.83;36.05;102038.88;5012100;28;45719;-74
2022/04/17 03:37:48;;;;;;;;;0.00;0.00;;;;;13.70;36.39;102022.09;5015863;28;45477;-75
2022/04/17 03:40:16;;;;;;;;;7.00;2.75;;;;;13.66;36.21;102009.75;5006513;28;45503;-75
2022/04/17 03:42:42;;;;;;;;;4.25;3.75;;;;;13.80;36.50;102030.97;5016300;28;45347;-69
2022/04/17 03:45:11;;;;;;;;;4.25;3.50;;;;;13.58;36.04;101982.50;5016836;28;46445;-72
2022/04/17 03:47:38;;;;;;;;;4.25;4.25;;;;;13.76;36.00;102021.25;5029910;28;45512;-73
2022/04/17 03:50:04;;;;;;;;;5.00;3.25;;;;;13.70;35.74;102027.38;4999527;28;45455;-73
2022/04/17 03:52:41;;;;;;;;;3.25;3.25;;;;;13.73;36.26;102027.38;5013655;28;45483;-73
2022/04/17 03:55:07;;;;;;;;;3.00;3.00;;;;;13.66;36.00;102019.41;5016879;28;46191;-76
2022/04/17 03:57:33;;;;;;;;;4.50;3.75;;;;;13.71;35.66;102030.88;5015524;28;45681;-76
2022/04/17 03:59:59;;;;;;;;;3.50;3.00;;;;;13.75;35.30;102035.31;5016533;28;45769;-75
2022/04/17 04:02:25;;;;;;;;;4.00;4.00;;;;;13.77;35.64;102023.06;5015622;28;45287;-70
2022/04/17 04:04:51;;;;;;;;;4.75;2.75;;;;;13.74;35.80;102013.38;5031032;28;45737;-72
2022/04/17 04:07:17;;;;;;;;;3.25;3.25;;;;;13.60;36.02;101980.78;5016303;28;45536;-69
2022/04/17 04:09:44;;;;;;;;;3.50;3.50;;;;;13.70;35.78;101994.91;5016501;28;45487;-76
2022/04/17 04:12:11;;;;;;;;;4.75;3.50;;;;;13.89;35.68;102020.53;5012278;28;45647;-69
2022/04/17 04:14:37;;;;;;;;;4.75;4.00;;;;;13.78;35.49;102009.00;5011582;28;46387;-70
2022/04/17 04:17:04;;;;;;;;;4.50;3.50;;;;;13.79;35.00;102023.94;5016117;28;45578;-77
2022/04/17 04:19:30;;;;;;;;;7.00;4.00;;;;;13.73;35.48;102013.34;5010245;28;45478;-78
2022/04/17 04:21:58;;;;;;;;;4.50;4.50;;;;;13.70;35.76;102023.84;5016860;28;45343;-76
2022/04/17 04:24:24;;;;;;;;;3.25;2.75;;;;;13.65;35.03;102015.91;5015050;28;46754;-76
2022/04/17 04:29:37;;;;;;;;;5.00;4.00;;;;;13.53;35.67;102021.06;4995487;28;45272;-73
2022/04/17 04:32:06;;;;;;;;;4.25;4.00;;;;;13.46;35.13;102008.69;5016513;28;45296;-75
2022/04/17 04:34:35;;;;;;;;;3.00;3.00;;;;;13.45;35.57;102020.97;5016109;28;45515;-70
2022/04/17 04:37:01;;;;;;;;;4.50;4.00;;;;;13.24;35.98;102004.91;5013804;28;45501;-74
2022/04/17 04:39:28;;;;;;;;;8.00;4.00;;;;;13.16;35.63;102010.09;5017943;28;45583;-74
2022/04/17 04:41:54;;;;;;;;;6.00;4.50;;;;;13.18;35.88;102011.00;5020306;28;45590;-76
2022/04/17 07:04:30;;;;;;;;;7.25;5.25;;;;;12.13;37.26;102031.44;5069455;28;45510;-72
2022/04/17 07:06:56;;;;;;;;;6.25;6.25;;;;;12.20;36.74;102023.69;5052796;28;45292;-73
2022/04/17 07:09:22;;;;;;;;;6.00;5.25;;;;;12.42;36.57;102010.88;5052896;28;45486;-70
2022/04/17 07:11:48;;;;;;;;;6.00;5.00;;;;;12.62;36.09;102005.88;5053636;28;45234;-70
2022/04/17 07:14:14;;;;;;;;;6.25;6.25;;;;;12.80;35.91;102015.78;5048958;28;45618;-69
2022/04/17 07:16:41;;;;;;;;;5.75;5.75;;;;;12.97;35.91;102010.72;5051913;28;45306;-69
2022/04/17 07:19:07;;;;;;;;;10.25;6.00;;;;;13.14;38.21;101999.56;5052997;28;45439;-70
2022/04/17 07:21:33;;;;;;;;;6.25;5.25;;;;;13.34;36.43;101999.81;5068705;28;45520;-68
2022/04/17 07:23:58;;;;;;;;;7.25;5.75;;;;;13.57;35.32;101997.41;5052583;28;46080;-68
2022/04/17 07:26:24;;;;;;;;;7.00;5.50;;;;;13.49;34.75;101951.69;5052298;28;45497;-69
2022/04/17 07:28:49;;;;;;;;;8.00;5.00;;;;;13.94;34.67;101999.50;5052624;28;45338;-68
2022/04/17 07:31:15;;;;;;;;;5.00;5.00;;;;;14.11;35.30;102007.53;5052992;28;45471;-69
2022/04/17 07:33:41;;;;;;;;;4.00;4.00;;;;;14.28;34.60;102000.63;5052584;28;46588;-69
2022/04/17 07:36:06;;;;;;;;;3.25;2.25;;;;;14.43;34.95;101992.81;5051252;28;45535;-69
2022/04/17 07:38:32;;;;;;;;;3.25;3.00;;;;;14.61;34.41;101994.69;5052985;28;45652;-70
2022/04/17 07:40:58;;;;;;;;;6.25;4.00;;;;;14.78;33.88;101992.19;5052380;28;45329;-71
2022/04/17 07:43:23;;;;;;;;;4.00;4.00;;;;;14.96;33.47;101991.34;5067779;28;46766;-70
2022/04/17 07:45:49;;;;;;;;;4.00;4.00;;;;;15.11;33.47;101990.53;5052821;28;45529;-70
2022/04/17 07:48:14;;;;;;;;;7.33;5.00;;;;;15.19;33.11;101990.56;5052049;28;45452;-70
2022/04/17 07:50:43;;;;;;;;;5.00;4.33;;;;;15.22;33.01;101972.97;5053141;28;45351;-71
2022/04/17 07:53:10;;;;;;;;;8.67;6.67;;;;;15.19;32.67;101974.72;5052142;28;47534;-71
2022/04/17 07:55:35;;;;;;;;;7.25;6.25;;;;;14.96;32.15;101946.50;5053188;28;45543;-69
2022/04/17 08:00:31;;;;;;;;;8.00;5.25;;;;;15.13;33.00;101958.88;5052743;28;45498;-68
2022/04/17 08:05:44;;;;;;;;;6.00;5.75;;;;;15.03;32.48;101950.91;5020010;28;45344;-72
2022/04/17 08:08:10;;;;;;;;;4.00;4.00;;;;;14.98;32.29;101965.88;5072417;28;45528;-70
2022/04/17 08:10:37;;;;;;;;;6.00;5.00;;;;;14.81;32.77;101946.47;5072593;27;45326;-70
2022/04/17 08:13:03;;;;;;;;;4.33;4.33;;;;;15.00;32.18;101965.88;5073616;28;46221;-71
2022/04/17 08:15:29;;;;;;;;;7.33;4.67;;;;;14.97;31.88;101964.13;5061968;28;45798;-74
2022/04/17 08:17:55;;;;;;;;;7.25;6.00;;;;;14.88;31.33;101965.81;5059009;28;45477;-70
2022/04/17 08:20:21;;;;;;;;;6.67;6.00;;;;;14.76;31.05;101949.09;5059057;28;45360;-70
2022/04/17 08:22:46;;;;;;;;;4.33;4.00;;;;;14.77;31.18;101950.84;5058471;28;45449;-69
2022/04/17 08:25:12;;;;;;;;;5.75;5.75;;;;;14.72;31.44;101939.38;5058267;28;45479;-70
2022/04/17 08:27:55;;;;;;;;;3.00;3.00;;;;;14.55;31.22;101901.53;5058438;28;45614;-72
2022/04/17 08:30:26;;;;;;;;;5.00;4.75;;;;;14.77;30.95;101937.66;5058891;28;45231;-71
2022/04/17 08:32:53;;;;;;;;;4.00;4.00;;;;;14.73;31.25;101935.00;5055882;28;45508;-71
2022/04/17 08:35:19;;;;;;;;;6.00;5.00;;;;;14.63;30.66;101911.22;5051959;28;45474;-72
2022/04/17 08:37:46;;;;;;;;;6.00;4.00;;;;;14.77;30.95;101931.50;5058293;28;45424;-73
2022/04/17 08:40:13;;;;;;;;;6.00;4.00;;;;;14.91;30.44;101947.38;5055147;28;45587;-72
2022/04/17 08:42:39;;;;;;;;;5.50;5.50;;;;;14.91;29.86;101945.63;5058013;28;45838;-70
2022/04/17 08:45:09;;;;;;;;;4.33;4.33;;;;;14.85;29.38;101935.03;5058212;28;45476;-72
2022/04/17 08:47:37;;;;;;;;;6.25;4.25;;;;;14.68;30.29;101908.59;5058219;28;45613;-71
2022/04/17 08:50:06;;;;;;;;;3.67;3.00;;;;;14.74;30.99;101906.00;5058110;28;45481;-69
2022/04/17 08:52:38;;;;;;;;;4.67;4.67;;;;;15.01;30.59;101934.19;5057749;28;45576;-73
2022/04/17 08:55:04;;;;;;;;;3.00;3.00;;;;;15.14;31.18;101927.22;5057962;28;45378;-74
2022/04/17 08:57:32;;;;;;;;;4.67;4.00;;;;;15.31;32.51;101934.28;5057611;28;45498;-74
2022/04/17 08:59:58;;;;;;;;;3.00;3.00;;;;;15.04;31.95;101867.38;5051410;28;45585;-68
2022/04/17 09:02:24;;;;;;;;;4.67;3.33;;;;;15.69;31.64;101934.31;5052804;28;45449;-70
2022/04/17 09:04:49;;;;;;;;;4.67;4.67;;;;;15.80;30.21;101940.50;5052615;28;45534;-70
2022/04/17 09:07:15;;;;;;;;;3.00;3.00;;;;;15.93;31.67;101930.81;5057288;28;45711;-74
2022/04/17 09:09:50;;;;;;;;;4.33;3.67;;;;;16.13;31.05;101932.53;5056291;28;45475;-72
2022/04/17 09:12:26;;;;;;;;;4.00;3.67;;;;;16.16;28.63;101916.66;5057476;28;46287;-74
2022/04/17 09:14:55;;;;;;;;;4.67;4.00;;;;;16.10;28.19;101905.22;5058055;28;45621;-71
2022/04/17 09:17:29;;;;;;;;;4.00;4.00;;;;;16.27;27.14;101918.38;5058224;28;45779;-72
2022/04/17 09:19:58;;;;;;;;;3.00;3.00;;;;;16.21;27.81;101896.41;5057595;28;45299;-73
2022/04/17 09:22:25;;;;;;;;;3.00;3.00;;;;;16.41;28.76;101913.06;5039491;28;46757;-72
2022/04/17 09:24:51;;;;;;;;;4.00;4.00;;;;;16.24;29.17;101851.44;5057723;28;45339;-72
2022/04/17 09:27:17;;;;;;;;;5.00;5.00;;;;;16.61;28.67;101897.13;5056618;28;45433;-71
2022/04/17 09:29:43;;;;;;;;;5.00;4.00;;;;;16.74;27.56;101897.94;5057702;28;45485;-77
2022/04/17 09:32:13;;;;;;;;;5.00;4.00;;;;;16.84;27.64;101904.09;5057250;28;46144;-74
2022/04/17 09:34:50;;;;;;;;;5.00;5.00;;;;;16.84;27.52;101901.44;5056084;28;45612;-75
2022/04/17 09:37:19;;;;;;;;;3.67;3.67;;;;;16.90;28.18;101898.78;5039520;28;45362;-72
2022/04/17 09:39:46;;;;;;;;;3.00;3.00;;;;;17.02;28.17;101895.19;5058001;28;45474;-75
2022/04/17 09:42:13;;;;;;;;;3.00;3.00;;;;;17.13;28.32;101894.22;5057735;28;45347;-69
2022/04/17 09:44:47;;;;;;;;;4.00;4.00;;;;;17.27;28.16;101894.09;5061277;28;45237;-70
2022/04/17 09:47:16;;;;;;;;;4.00;4.00;;;;;17.22;27.70;101897.69;5058289;28;45551;-73
2022/04/17 09:49:59;;;;;;;;;3.67;3.00;;;;;17.25;28.28;101890.63;5057334;28;45482;-72
2022/04/17 09:52:31;;;;;;;;;2.67;2.67;;;;;17.36;28.09;101880.81;5037392;28;45315;-75
2022/04/17 09:54:58;;;;;;;;;3.00;3.00;;;;;17.43;28.30;101868.41;5037402;28;45446;-71
2022/04/17 09:57:32;;;;;;;;;4.00;3.00;;;;;17.57;28.10;101862.97;5037824;28;45406;-72
2022/04/17 10:00:12;;;;;;;;;3.33;3.33;;;;;17.74;28.15;101865.47;5037761;28;45386;-73
2022/04/17 10:02:39;;;;;;;;;7.00;4.67;;;;;17.84;28.05;101861.00;5037097;28;45366;-74
2022/04/17 10:05:07;;;;;;;;;7.00;3.67;;;;;17.96;28.38;101855.53;5039671;28;45369;-76
2022/04/17 10:07:38;;;;;;;;;4.67;3.00;;;;;17.99;27.66;101839.63;5056832;28;45508;-70
2022/04/17 10:10:05;;;;;;;;;5.00;3.67;;;;;18.15;27.27;101854.47;5057426;28;45525;-75
2022/04/17 10:12:34;;;;;;;;;4.33;4.00;;;;;18.18;26.97;101853.56;5056739;28;45426;-71
2022/04/17 10:15:04;;;;;;;;;4.33;4.33;;;;;18.00;26.90;101817.53;5056998;28;45331;-76
2022/04/17 10:17:34;;;;;;;;;6.00;5.67;;;;;18.03;26.47;101820.13;5056660;28;45501;-71
2022/04/17 10:20:08;;;;;;;;;3.00;3.00;;;;;18.14;26.79;101833.28;5056893;28;45505;-72
2022/04/17 10:22:38;;;;;;;;;5.00;3.67;;;;;18.23;26.77;101841.13;5056353;28;46133;-72
2022/04/17 10:25:06;;;;;;;;;5.67;4.67;;;;;18.36;27.47;101839.19;5056727;28;45389;-73
2022/04/17 10:27:36;;;;;;;;;8.67;5.00;;;;;18.42;26.31;101839.13;5057139;28;45374;-72
2022/04/17 10:30:07;;;;;;;;;4.67;4.00;;;;;18.45;26.69;101836.41;5057174;28;45386;-72
2022/04/17 10:32:33;;;;;;;;;3.67;3.67;;;;;18.48;26.51;101828.41;5056622;28;45556;-72
2022/04/17 10:35:20;;;;;;;;;5.67;3.33;;;;;18.47;25.82;101818.69;5056882;28;45339;-73
2022/04/17 10:38:03;;;;;;;;;2.33;2.33;;;;;18.53;26.91;101817.72;5058375;28;45302;-71
2022/04/17 10:40:31;;;;;;;;;3.00;3.00;;;;;18.62;26.64;101818.47;5058539;28;45329;-73
2022/04/17 10:43:00;;;;;;;;;4.00;3.33;;;;;18.62;26.55;101791.06;5056588;28;45516;-75
2022/04/17 10:45:31;;;;;;;;;4.67;3.67;;;;;18.59;27.85;101761.94;5056996;28;45450;-74
2022/04/17 10:48:09;;;;;;;;;4.00;4.00;;;;;18.95;25.29;101800.31;5057199;28;45423;-76
2022/04/17 10:50:52;;;;;;;;;3.00;3.00;;;;;18.92;25.61;101775.63;5056791;28;45488;-74
2022/04/17 10:53:24;;;;;;;;;3.00;3.00;;;;;19.18;27.65;101791.13;5055741;28;45511;-72
2022/04/17 10:56:05;;;;;;;;;4.00;3.00;;;;;19.36;26.74;101797.88;5056004;28;45655;-71
2022/04/17 10:58:40;;;;;;;;;4.00;3.00;;;;;19.49;25.06;101792.31;5056790;28;45500;-75
2022/04/17 11:01:06;;;;;;;;;5.67;5.00;;;;;19.60;24.83;101796.56;5057483;28;45382;-78
2022/04/17 11:03:35;;;;;;;;;6.00;4.00;;;;;19.49;24.29;101771.06;5058635;28;45507;-74
2022/04/17 11:06:34;;;;;;;;;8.33;6.67;;;;;19.22;24.21;101729.06;5058401;28;45491;-72
2022/04/17 11:09:24;;;;;;;;;7.67;4.33;;;;;19.53;24.08;101781.63;5057408;28;45531;-74
2022/04/17 11:11:51;;;;;;;;;3.00;3.00;;;;;19.44;23.77;101750.81;5050506;28;45549;-76
2022/04/17 11:14:26;;;;;;;;;4.00;4.00;;;;;19.52;24.00;101755.97;5056456;28;46565;-70
2022/04/17 11:16:58;;;;;;;;;4.67;4.67;;;;;19.67;24.74;101764.53;5056365;28;45577;-74
2022/04/17 11:19:33;;;;;;;;;5.67;4.67;;;;;19.58;23.51;101716.00;5056881;28;45285;-74
2022/04/17 11:22:02;;;;;;;;;3.00;3.00;;;;;19.23;23.29;101646.72;5059131;28;45461;-74
2022/04/17 11:24:48;;;;;;;;;2.00;2.00;;;;;19.63;24.12;101707.03;5057963;28;46610;-76
2022/04/17 11:27:14;;;;;;;;;4.67;4.33;;;;;20.06;23.06;101737.19;5056023;28;45616;-74
2022/04/17 11:29:47;;;;;;;;;7.00;4.00;;;;;19.99;23.07;101712.50;5038980;28;45457;-74
2022/04/17 11:32:16;;;;;;;;;2.67;2.33;;;;;20.24;23.27;101731.47;5039487;28;45986;-74
2022/04/17 11:34:43;;;;;;;;;5.00;3.00;;;;;20.33;22.58;101733.03;5037166;28;46853;-72
2022/04/17 11:37:13;;;;;;;;;4.00;4.00;;;;;20.29;21.82;101720.75;5055308;28;45521;-74
2022/04/17 11:39:39;;;;;;;;;3.67;3.67;;;;;20.38;21.91;101730.28;5051777;28;45586;-71
2022/04/17 11:42:11;;;;;;;;;5.33;5.33;;;;;20.36;22.00;101721.44;5057213;28;45589;-73
2022/04/17 11:44:42;;;;;;;;;2.67;2.67;;;;;20.37;21.61;101717.91;5057097;28;46630;-72
2022/04/17 11:47:10;;;;;;;;;5.00;4.00;;;;;20.47;22.02;101714.09;5055933;28;45378;-74
2022/04/17 11:49:40;;;;;;;;;6.00;5.00;;;;;20.53;21.79;101701.53;5035010;28;45435;-74
2022/04/17 11:52:14;;;;;;;;;5.00;4.33;;;;;20.66;22.07;101712.78;5039369;28;45491;-71
2022/04/17 11:54:42;;;;;;;;;5.67;4.00;;;;;20.68;21.89;101692.31;5039026;28;45613;-75
2022/04/17 11:57:08;;;;;;;;;4.67;3.00;;;;;20.79;21.80;101696.53;5039091;28;45575;-73
2022/04/17 11:59:50;;;;;;;;;5.67;5.00;;;;;20.86;21.94;101680.34;5039425;28;45284;-73
2022/04/17 12:02:20;;;;;;;;;4.00;3.00;;;;;21.12;22.04;101689.44;5021450;28;45429;-70
2022/04/17 12:04:48;;;;;;;;;4.33;4.33;;;;;21.21;21.44;101678.50;5054061;28;45192;-74
2022/04/17 12:07:19;;;;;;;;;4.00;4.00;;;;;21.40;21.20;101668.25;5059410;28;45517;-71
2022/04/17 12:09:47;;;;;;;;;5.00;4.00;;;;;21.58;21.15;101666.84;5059116;28;45406;-71
2022/04/17 12:12:15;;;;;;;;;4.33;4.33;;;;;21.65;20.82;101663.09;5040655;28;45488;-71
2022/04/17 12:14:42;;;;;;;;;7.00;4.67;;;;;21.78;20.66;101666.25;5058955;28;45591;-72
2022/04/17 12:17:08;;;;;;;;;5.00;5.00;;;;;21.71;20.55;101640.69;5059041;28;45283;-72
2022/04/17 12:19:34;;;;;;;;;4.00;3.67;;;;;21.90;20.60;101667.69;5057562;28;45500;-72
2022/04/17 12:22:05;;;;;;;;;4.67;4.00;;;;;21.98;20.72;101653.19;5058322;28;45581;-75
2022/04/17 12:24:30;;;;;;;;;3.00;3.00;;;;;22.18;21.13;101651.69;5058361;28;45519;-70
2022/04/17 12:26:56;;;;;;;;;3.33;3.33;;;;;22.30;20.64;101635.31;5058732;28;46096;-69
2022/04/17 12:29:25;;;;;;;;;4.00;4.00;;;;;22.61;20.10;101644.97;5059014;28;45478;-71
2022/04/17 12:31:51;;;;;;;;;4.33;4.00;;;;;22.71;19.67;101643.75;5058329;28;45996;-72
2022/04/17 12:34:19;;;;;;;;;5.67;4.00;;;;;22.67;19.71;101636.75;5040131;28;47148;-70
2022/04/17 12:36:46;;;;;;;;;6.33;4.67;;;;;22.54;19.36;101609.63;5058024;28;45495;-73
2022/04/17 12:39:12;;;;;;;;;4.33;4.33;;;;;22.77;19.61;101629.31;5041017;28;45299;-74
2022/04/17 12:41:43;;;;;;;;;5.67;3.00;;;;;22.74;19.88;101616.06;5061054;28;45245;-69
2022/04/17 12:44:12;;;;;;;;;3.33;3.33;;;;;22.89;20.00;101617.31;5058831;28;46291;-70
2022/04/17 12:46:42;;;;;;;;;3.33;3.33;;;;;23.00;20.06;101616.03;5058566;28;45311;-71
2022/04/17 12:49:11;;;;;;;;;3.67;3.67;;;;;23.06;19.61;101620.28;5058570;28;45486;-75
2022/04/17 12:51:54;;;;;;;;;4.00;4.00;;;;;22.91;19.69;101578.94;5039984;28;46136;-71
2022/04/17 12:54:20;;;;;;;;;4.00;4.00;;;;;23.07;20.17;101598.88;5057967;28;46212;-73
2022/04/17 12:56:47;;;;;;;;;4.00;3.00;;;;;23.29;20.48;101601.59;5058349;28;45435;-71
2022/04/17 12:59:19;;;;;;;;;3.33;3.00;;;;;23.19;20.43;101549.44;5059099;28;45522;-70
2022/04/17 13:01:49;;;;;;;;;3.67;3.00;;;;;23.17;20.34;101518.38;5057438;28;45323;-72
2022/04/17 13:04:20;;;;;;;;;5.00;5.00;;;;;23.54;19.69;101555.25;5058410;28;45486;-72
2022/04/17 13:07:04;;;;;;;;;5.00;3.00;;;;;23.91;19.87;101599.25;5057729;28;45525;-73
2022/04/17 13:09:30;;;;;;;;;4.33;4.33;;;;;23.57;19.22;101532.84;5058248;28;45442;-73
2022/04/17 13:11:55;;;;;;;;;4.00;4.00;;;;;23.86;19.36;101574.50;5058287;28;45338;-72
2022/04/17 13:14:22;;;;;;;;;3.33;3.33;;;;;23.73;19.44;101562.50;5057246;28;45451;-70
2022/04/17 13:17:00;;;;;;;;;3.67;3.67;;;;;23.87;19.61;101571.78;5057684;28;45381;-73
2022/04/17 13:19:28;;;;;;;;;3.00;3.00;;;;;23.94;19.93;101571.50;5057784;28;45460;-74
2022/04/17 13:21:55;;;;;;;;;4.00;3.00;;;;;24.09;20.11;101565.56;5058405;28;45400;-72
2022/04/17 13:24:25;;;;;;;;;4.33;3.33;;;;;24.28;19.63;101562.97;5058622;28;45296;-72
2022/04/17 13:26:52;;;;;;;;;3.00;3.00;;;;;24.29;19.14;101545.97;5057755;28;45330;-70
2022/04/17 13:29:19;;;;;;;;;3.33;3.00;;;;;24.36;19.21;101557.28;5039487;28;45571;-74
2022/04/17 13:31:50;;;;;;;;;4.00;3.67;;;;;24.16;19.28;101528.69;5056657;28;45342;-72
2022/04/17 13:34:17;;;;;;;;;3.00;3.00;;;;;23.85;19.06;101479.16;5038653;28;45611;-74
2022/04/17 13:36:43;;;;;;;;;3.00;3.00;;;;;24.24;19.09;101562.22;5057048;28;45457;-72
2022/04/17 13:39:09;;;;;;;;;4.00;2.33;;;;;24.17;18.88;101547.34;5057495;28;45433;-74
2022/04/17 13:41:35;;;;;;;;;2.33;2.33;;;;;24.21;19.21;101542.75;5057653;28;45522;-72
2022/04/17 13:44:02;;;;;;;;;4.00;2.00;;;;;24.22;19.61;101529.28;5038608;28;47046;-73
2022/04/17 13:46:32;;;;;;;;;5.00;3.00;;;;;24.33;19.24;101535.06;5056722;28;45633;-73
2022/04/17 13:48:58;;;;;;;;;4.00;3.00;;;;;24.31;19.56;101523.53;5056960;28;45213;-74
2022/04/17 13:51:24;;;;;;;;;2.00;2.00;;;;;24.37;19.00;101524.22;5057703;28;45509;-72
2022/04/17 13:53:53;;;;;;;;;3.67;3.67;;;;;24.37;18.82;101532.25;5056556;28;45525;-75
2022/04/17 13:56:18;;;;;;;;;4.00;4.00;;;;;24.26;19.02;101522.88;5056936;28;45348;-71
2022/04/17 13:58:47;;;;;;;;;2.67;2.67;;;;;24.07;18.68;101508.53;5056820;28;45490;-71
2022/04/17 14:01:12;;;;;;;;;2.00;2.00;;;;;23.70;19.23;101433.34;5056989;28;45464;-72
2022/04/17 14:03:41;;;;;;;;;2.00;2.00;;;;;24.28;19.11;101515.66;5056587;28;45925;-72